createdAt,value
2023-03-23T16:01:24.797Z,13.20
2023-03-23T16:06:34.645Z,9.13
2023-03-23T16:11:39.529Z,15.90
2023-03-23T16:16:49.690Z,14.07
2023-03-23T16:21:56.116Z,28.95
2023-03-23T16:27:01.092Z,24.95
2023-03-23T16:32:05.491Z,61.92
2023-03-23T16:37:13.566Z,43.30
2023-03-23T16:42:17.639Z,74.63
2023-03-23T16:47:23.523Z,64.30
2023-03-23T16:52:28.931Z,24.92
2023-03-23T16:57:35.722Z,38.55
2023-03-23T17:02:43.993Z,24.05
2023-03-23T17:07:50.029Z,26.52
2023-03-23T17:12:55.042Z,45.22
2023-03-23T17:17:59.182Z,31.35
2023-03-23T17:23:05.163Z,22.27
2023-03-23T17:28:09.388Z,37.60
2023-03-23T17:33:14.305Z,77.55
2023-03-23T17:38:19.758Z,63.65
2023-03-23T17:43:24.094Z,57.30
2023-03-23T17:48:29.830Z,33.60
2023-03-23T17:53:36.812Z,131.40
2023-03-23T17:58:42.751Z,199.38
2023-03-23T18:03:46.877Z,123.82
2023-03-23T18:08:52.223Z,111.15
2023-03-23T18:13:56.854Z,93.80
2023-03-23T18:19:01.154Z,57.10
2023-03-23T18:24:08.090Z,80.13
2023-03-23T18:29:13.054Z,62.45
2023-03-23T18:34:17.111Z,41.45
2023-03-23T18:39:22.605Z,46.85
2023-03-23T18:44:26.590Z,47.95
2023-03-23T18:49:33.840Z,39.15
2023-03-23T18:54:40.658Z,41.28
2023-03-23T18:59:44.689Z,70.55
2023-03-23T19:04:51.056Z,76.93
2023-03-23T19:09:57.071Z,60.83
2023-03-23T19:15:01.341Z,58.55
2023-03-23T19:20:14.648Z,40.45
2023-03-23T19:25:26.718Z,40.80
2023-03-23T19:30:32.868Z,42.17
2023-03-23T19:35:42.380Z,52.28
2023-03-23T19:46:00.064Z,32.78
2023-03-23T19:51:04.993Z,31.00
2023-03-23T19:56:14.829Z,45.80
2023-03-23T20:01:19.242Z,30.08
2023-03-23T20:06:29.264Z,38.22
2023-03-23T20:11:35.502Z,37.33
2023-03-23T20:16:39.672Z,30.33
2023-03-23T20:21:44.903Z,23.48
2023-03-23T20:26:50.429Z,27.27
2023-03-23T20:31:54.522Z,19.98
2023-03-23T20:36:59.445Z,22.30
2023-03-23T20:47:34.793Z,15.25
2023-03-23T20:52:40.320Z,28.00
2023-03-23T20:57:45.926Z,24.60
2023-03-23T21:02:54.226Z,32.08
2023-03-23T21:07:58.465Z,57.25
2023-03-23T21:13:04.427Z,35.22
2023-03-23T21:18:10.640Z,54.13
2023-03-23T21:23:15.217Z,74.78
2023-03-23T21:28:22.194Z,38.85
2023-03-23T21:33:26.773Z,54.65
2023-03-23T21:38:32.486Z,38.85
2023-03-23T21:43:40.872Z,32.17
2023-03-23T21:48:45.641Z,40.80
2023-03-23T21:53:50.235Z,33.42
2023-03-23T21:58:56.100Z,25.35
2023-03-23T22:04:00.235Z,25.23
2023-03-23T22:09:07.259Z,24.48
2023-03-23T22:14:12.963Z,31.25
2023-03-23T22:19:17.307Z,22.83
2023-03-23T22:24:21.527Z,18.75
2023-03-23T22:29:27.441Z,18.67
2023-03-23T22:34:32.675Z,14.30
2023-03-23T22:39:36.906Z,18.23
2023-03-23T22:44:42.671Z,22.70
2023-03-23T22:49:46.813Z,25.27
2023-03-23T22:54:51.028Z,20.45
2023-03-23T22:59:56.712Z,23.80
2023-03-23T23:05:00.900Z,18.70
2023-03-23T23:10:06.239Z,15.02
2023-03-23T23:15:14.565Z,16.88
2023-03-23T23:20:20.235Z,45.13
2023-03-23T23:25:25.054Z,41.22
2023-03-23T23:30:31.820Z,25.27
2023-03-23T23:35:54.553Z,23.35
2023-03-23T23:40:59.272Z,20.95
2023-03-23T23:46:04.949Z,18.02
2023-03-23T23:51:10.069Z,19.40
2023-03-23T23:56:15.279Z,19.70
